Time;durP1;ratioP1;P1;durP2;ratioP2;P2;SDS_P1;SDS_P2;PMS_P1;PMS_P2;Temp;Humidity;BMP_temperature;BMP_pressure;BME280_temperature;BME280_humidity;BME280_pressure;Samples;Min_cycle;Max_cycle;Signal;HPM_P1;HPM_P2
2022/12/26 00:01:18;;;;;;;;;3.00;2.00;;;;;13.44;100.00;100636.13;6200575;22;45110;-86
2022/12/26 00:03:44;;;;;;;;;4.00;4.00;;;;;13.50;100.00;100647.72;6200621;22;44714;-86
2022/12/26 00:06:16;;;;;;;;;3.00;3.00;;;;;13.52;100.00;100661.06;6198670;23;45418;-85
2022/12/26 00:08:49;;;;;;;;;3.00;3.00;;;;;13.55;100.00;100671.75;6199957;23;44878;-85
2022/12/26 00:11:16;;;;;;;;;5.00;3.50;;;;;13.53;100.00;100666.44;6198808;23;46644;-85
2022/12/26 00:14:19;;;;;;;;;2.00;2.00;;;;;13.52;100.00;100674.44;6198665;23;45311;-85
2022/12/26 00:16:45;;;;;;;;;2.25;2.25;;;;;13.50;100.00;100678.88;6199672;23;44701;-86
2022/12/26 00:19:11;;;;;;;;;4.00;4.00;;;;;13.50;100.00;100689.56;6200043;23;44954;-85
2022/12/26 00:21:37;;;;;;;;;2.25;2.25;;;;;13.51;100.00;100688.66;6198790;22;46948;-85
2022/12/26 00:24:03;;;;;;;;;4.75;3.00;;;;;13.51;100.00;100691.34;6203081;22;45275;-85
2022/12/26 00:26:32;;;;;;;;;3.75;3.50;;;;;13.55;100.00;100694.03;6203569;23;44690;-85
2022/12/26 00:28:58;;;;;;;;;3.25;3.25;;;;;13.51;100.00;100686.00;6199045;22;45270;-86
2022/12/26 00:31:27;;;;;;;;;5.00;5.00;;;;;13.50;100.00;100689.56;6199673;23;46847;-85
2022/12/26 00:33:53;;;;;;;;;4.67;2.67;;;;;13.47;100.00;100684.22;6198673;23;45354;-85
2022/12/26 00:36:23;;;;;;;;;5.00;5.00;;;;;13.42;100.00;100680.66;6226085;22;44723;-85
2022/12/26 00:38:50;;;;;;;;;4.00;4.00;;;;;13.46;100.00;100687.78;6200054;23;45427;-86
2022/12/26 00:41:18;;;;;;;;;7.33;7.33;;;;;13.45;100.00;100678.84;6197729;23;46738;-85
2022/12/26 00:43:44;;;;;;;;;6.67;4.33;;;;;13.44;100.00;100679.75;6218096;22;45106;-86
2022/12/26 00:46:10;;;;;;;;;7.67;6.67;;;;;13.40;100.00;100677.97;6203176;22;45410;-85
2022/12/26 00:48:36;;;;;;;;;6.67;6.33;;;;;13.43;100.00;100691.31;6228814;22;44938;-86
2022/12/26 00:51:02;;;;;;;;;5.67;5.67;;;;;13.46;100.00;100694.00;6202036;22;46710;-85
2022/12/26 00:53:27;;;;;;;;;7.00;6.75;;;;;13.46;100.00;100695.81;6201563;22;45284;-86
2022/12/26 00:55:53;;;;;;;;;8.00;7.00;;;;;13.49;100.00;100695.78;6202399;22;44826;-86
2022/12/26 00:58:20;;;;;;;;;7.00;6.33;;;;;13.42;100.00;100670.84;6203018;22;45312;-86
2022/12/26 01:00:46;;;;;;;;;6.67;6.33;;;;;13.40;100.00;100670.84;6204170;22;46617;-86
2022/12/26 01:03:12;;;;;;;;;4.50;4.50;;;;;13.49;100.00;100690.44;6203035;22;45694;-85
2022/12/26 01:05:43;;;;;;;;;5.25;5.25;;;;;13.44;100.00;100676.22;6205378;22;44634;-86
2022/12/26 01:08:09;;;;;;;;;5.00;5.00;;;;;13.43;100.00;100682.41;6204678;22;45368;-87
2022/12/26 01:10:34;;;;;;;;;6.75;6.75;;;;;13.44;100.00;100693.13;6202358;22;46680;-85
2022/12/26 01:13:00;;;;;;;;;8.50;7.00;;;;;13.51;100.00;100707.38;6229512;22;45258;-85
2022/12/26 01:15:25;;;;;;;;;11.00;6.50;;;;;13.37;100.00;100694.91;6201608;22;44731;-86
2022/12/26 01:17:51;;;;;;;;;6.33;5.00;;;;;13.54;100.00;100713.63;6201370;22;45224;-86
2022/12/26 01:20:16;;;;;;;;;5.25;5.25;;;;;13.56;100.00;100725.19;6198849;22;48090;-86
2022/12/26 01:22:42;;;;;;;;;3.00;3.00;;;;;13.54;100.00;100712.72;6201676;22;45144;-86
2022/12/26 01:25:09;;;;;;;;;6.67;4.00;;;;;13.62;100.00;100723.44;6230044;22;45253;-86
2022/12/26 01:27:34;;;;;;;;;2.00;2.00;;;;;13.63;100.00;100706.50;6202569;22;45447;-86
2022/12/26 01:29:59;;;;;;;;;3.00;3.00;;;;;13.54;100.00;100694.91;6229184;22;45344;-86
2022/12/26 01:32:25;;;;;;;;;2.75;2.75;;;;;13.64;100.00;100709.19;6229863;22;45258;-86
2022/12/26 01:34:54;;;;;;;;;4.00;3.25;;;;;13.57;100.00;100696.69;6230861;22;45379;-86
2022/12/26 01:37:19;;;;;;;;;3.75;3.00;;;;;13.67;100.00;100713.63;6204141;22;45327;-85
2022/12/26 01:39:45;;;;;;;;;3.00;3.00;;;;;13.64;100.00;100708.28;6204607;22;45420;-86
2022/12/26 01:42:12;;;;;;;;;4.00;2.00;;;;;13.68;100.00;100732.34;6202629;22;44751;-87
2022/12/26 01:45:15;;;;;;;;;3.75;3.75;;;;;13.69;100.00;100735.91;6227487;22;45336;-87
2022/12/26 01:48:02;;;;;;;;;3.00;3.00;;;;;13.68;100.00;100737.69;6203586;22;45317;-86
2022/12/26 01:50:45;;;;;;;;;2.50;2.50;;;;;13.69;100.00;100767.97;6226185;22;45158;-86
2022/12/26 01:53:20;;;;;;;;;4.25;3.00;;;;;13.68;100.00;100769.75;6199651;22;45136;-86
2022/12/26 01:55:53;;;;;;;;;1.50;1.50;;;;;13.49;100.00;100739.44;6200850;22;45325;-86
2022/12/26 01:58:32;;;;;;;;;3.25;2.00;;;;;13.43;100.00;100736.72;6228969;22;45242;-86
2022/12/26 02:01:01;;;;;;;;;4.00;4.00;;;;;13.63;100.00;100782.22;6200227;22;47149;-85
2022/12/26 02:06:13;;;;;;;;;5.75;3.00;;;;;13.54;100.00;100772.41;6229253;22;45420;-86
2022/12/26 02:08:39;;;;;;;;;5.00;2.00;;;;;13.48;100.00;100751.00;6228210;22;44776;-86
2022/12/26 02:11:20;;;;;;;;;4.25;2.75;;;;;13.54;100.00;100759.03;6228373;22;45307;-85
2022/12/26 02:14:23;;;;;;;;;4.50;3.00;;;;;13.48;100.00;100771.50;6200726;22;45262;-86
2022/12/26 02:16:49;;;;;;;;;2.00;2.00;;;;;13.35;100.00;100752.78;6202097;22;45295;-86
2022/12/26 02:19:35;;;;;;;;;4.50;3.00;;;;;13.46;100.00;100747.44;6200767;22;45605;-87
2022/12/26 02:22:18;;;;;;;;;1.50;1.50;;;;;13.44;100.00;100737.66;6175650;22;47695;-85
2022/12/26 02:25:05;;;;;;;;;4.50;3.00;;;;;13.43;100.00;100739.41;6199474;22;45571;-86
2022/12/26 02:27:48;;;;;;;;;3.00;2.00;;;;;13.40;100.00;100753.66;6202621;22;44886;-86
2022/12/26 02:30:19;;;;;;;;;2.00;2.00;;;;;13.40;100.00;100766.13;6229954;22;44626;-85
2022/12/26 02:33:06;;;;;;;;;2.00;1.50;;;;;13.38;100.00;100776.81;6202009;22;47021;-85
2022/12/26 02:35:59;;;;;;;;;3.00;2.00;;;;;13.34;100.00;100755.44;6204894;22;44832;-86
2022/12/26 02:38:42;;;;;;;;;2.50;2.00;;;;;13.40;100.00;100769.69;6137804;23;44747;-85
2022/12/26 02:41:29;;;;;;;;;1.00;1.00;;;;;13.38;100.00;100763.44;6136199;23;45241;-85
2022/12/26 02:47:01;;;;;;;;;1.25;1.25;;;;;13.34;100.00;100737.63;6134516;23;47070;-85
2022/12/26 02:47:05;;;;;;;;;1.00;1.00;;;;;13.33;100.00;100735.84;6136810;23;45219;-86
2022/12/26 03:13:52;;;;;;;;;1.25;1.00;;;;;13.31;100.00;100748.31;6079590;23;45465;-86
2022/12/26 03:19:08;;;;;;;;;3.00;1.00;;;;;13.30;100.00;100735.81;6138899;23;45352;-86
2022/12/26 03:21:41;;;;;;;;;1.00;1.00;;;;;13.23;100.00;100734.00;6140003;23;45214;-86
2022/12/26 03:24:09;;;;;;;;;0.50;0.50;;;;;13.30;100.00;100746.50;6114704;23;45356;-86
2022/12/26 03:26:46;;;;;;;;;0.50;0.50;;;;;13.25;100.00;100737.56;6115198;23;45297;-86
2022/12/26 03:32:11;;;;;;;;;1.00;1.00;;;;;13.23;100.00;100742.03;6162984;23;45382;-86
2022/12/26 03:34:41;;;;;;;;;1.00;1.00;;;;;13.30;100.00;100748.28;6174820;23;44833;-86
2022/12/26 03:37:34;;;;;;;;;0.00;0.00;;;;;13.29;100.00;100751.81;6174567;23;45456;-86
2022/12/26 04:44:27;;;;;;;;;1.00;1.00;;;;;12.97;100.00;100781.97;6230159;22;45321;-86
2022/12/26 04:46:55;;;;;;;;;0.75;0.75;;;;;12.96;100.00;100789.06;6230262;22;45204;-87
2022/12/26 04:52:11;;;;;;;;;0.75;0.75;;;;;13.00;100.00;100817.56;6228523;22;45234;-87
2022/12/26 04:54:37;;;;;;;;;0.25;0.00;;;;;13.04;100.00;100833.59;6200783;22;45252;-86
2022/12/26 04:57:03;;;;;;;;;2.00;1.00;;;;;13.06;100.00;100832.72;6227062;22;44719;-87
2022/12/26 04:59:29;;;;;;;;;0.00;0.00;;;;;13.04;100.00;100817.59;6229625;22;45199;-87
2022/12/26 05:10:26;;;;;;;;;1.00;1.00;;;;;12.90;100.00;100799.69;6227641;22;45641;-86
2022/12/26 05:12:53;;;;;;;;;0.75;0.75;;;;;13.06;100.00;100846.06;6200965;22;45302;-86
2022/12/26 05:15:19;;;;;;;;;1.00;1.00;;;;;13.04;100.00;100841.63;6229399;22;45280;-86
2022/12/26 05:28:58;;;;;;;;;0.00;0.00;;;;;12.86;100.00;100829.94;6229669;22;44718;-85
2022/12/26 05:31:24;;;;;;;;;0.00;0.00;;;;;12.83;100.00;100829.94;6201183;22;45182;-86
2022/12/26 05:34:04;;;;;;;;;1.00;1.00;;;;;12.80;100.00;100845.91;6226505;22;45250;-86
2022/12/26 05:36:36;;;;;;;;;1.75;1.00;;;;;12.77;100.00;100837.91;6201248;22;45346;-86
2022/12/26 05:39:03;;;;;;;;;0.50;0.50;;;;;12.75;100.00;100847.66;6203784;22;44843;-86
2022/12/26 05:41:28;;;;;;;;;1.00;1.00;;;;;12.72;100.00;100856.53;6229790;22;45286;-86
2022/12/26 05:43:53;;;;;;;;;1.00;1.00;;;;;12.69;100.00;100848.50;6229442;22;45208;-86
2022/12/26 05:46:19;;;;;;;;;1.00;1.00;;;;;12.72;100.00;100861.88;6228612;22;45932;-86
2022/12/26 05:48:45;;;;;;;;;0.75;0.75;;;;;12.72;100.00;100879.66;6203858;22;45131;-86
2022/12/26 05:51:10;;;;;;;;;1.50;1.00;;;;;12.63;100.00;100871.59;6204359;22;47918;-86
2022/12/26 05:53:36;;;;;;;;;1.00;1.00;;;;;12.70;100.00;100902.78;6204774;22;46175;-87
2022/12/26 05:56:07;;;;;;;;;0.25;0.25;;;;;12.68;100.00;100893.84;6205950;22;45200;-87
2022/12/26 05:58:33;;;;;;;;;1.00;1.00;;;;;12.66;100.00;100891.16;6233125;22;45344;-86
2022/12/26 06:01:09;;;;;;;;;1.00;1.00;;;;;12.73;100.00;100892.13;6205932;22;46910;-87
2022/12/26 06:03:35;;;;;;;;;0.75;0.75;;;;;12.67;100.00;100898.31;6205868;22;45126;-86
2022/12/26 06:06:02;;;;;;;;;1.00;0.25;;;;;12.65;100.00;100880.50;6204192;22;45412;-87
2022/12/26 06:08:28;;;;;;;;;3.25;0.75;;;;;12.66;100.00;100884.94;6233603;22;45329;-86
2022/12/26 06:11:00;;;;;;;;;1.00;1.00;;;;;12.61;100.00;100880.47;6206142;22;47740;-87
2022/12/26 06:13:26;;;;;;;;;0.75;0.75;;;;;12.45;100.00;100857.22;6207296;22;45365;-87
2022/12/26 06:15:51;;;;;;;;;0.25;0.25;;;;;12.57;100.00;100868.00;6233550;22;44759;-87
2022/12/26 06:18:17;;;;;;;;;1.00;1.00;;;;;12.52;100.00;100859.06;6206685;22;45335;-86
2022/12/26 06:21:06;;;;;;;;;1.50;0.25;;;;;12.56;100.00;100858.22;6233058;22;45278;-85
2022/12/26 06:23:32;;;;;;;;;0.00;0.00;;;;;12.56;100.00;100862.63;6204933;22;44699;-86
2022/12/26 06:26:00;;;;;;;;;2.00;0.00;;;;;12.49;100.00;100864.38;6206453;22;45398;-86
2022/12/26 06:28:26;;;;;;;;;0.75;0.25;;;;;12.53;100.00;100866.19;6206323;22;45407;-86
2022/12/26 06:30:52;;;;;;;;;1.00;1.00;;;;;12.50;100.00;100862.59;6204829;22;46613;-85
2022/12/26 06:33:18;;;;;;;;;1.00;1.00;;;;;12.48;100.00;100875.00;6231433;22;45382;-85
2022/12/26 06:35:44;;;;;;;;;0.00;0.00;;;;;12.29;100.00;100868.66;6232329;22;45379;-86
2022/12/26 06:38:10;;;;;;;;;1.00;1.00;;;;;12.21;100.00;100856.13;6232509;22;45240;-86
2022/12/26 06:40:40;;;;;;;;;1.00;1.00;;;;;12.37;100.00;100891.81;6237827;22;45203;-86
2022/12/26 06:43:06;;;;;;;;;1.00;1.00;;;;;12.38;100.00;100898.03;6230731;22;45369;-85
2022/12/26 06:45:32;;;;;;;;;0.50;0.50;;;;;12.39;100.00;100902.50;6205478;22;45265;-85
2022/12/26 06:47:58;;;;;;;;;1.00;1.00;;;;;12.35;100.00;100898.03;6234287;22;45437;-86
2022/12/26 06:50:24;;;;;;;;;2.75;1.75;;;;;12.32;100.00;100903.31;6206785;22;47187;-85
2022/12/26 06:52:50;;;;;;;;;1.00;1.00;;;;;12.25;100.00;100897.03;6208015;22;45495;-86
2022/12/26 06:55:16;;;;;;;;;1.25;1.25;;;;;12.26;100.00;100908.59;6234767;22;45373;-86
2022/12/26 06:57:41;;;;;;;;;0.00;0.00;;;;;12.25;100.00;100893.50;6233068;22;45220;-86
2022/12/26 07:00:07;;;;;;;;;1.33;1.33;;;;;12.34;100.00;100909.56;6232642;22;45290;-86
2022/12/26 07:02:33;;;;;;;;;1.75;1.75;;;;;12.34;100.00;100914.91;6207067;22;46111;-86
2022/12/26 07:04:58;;;;;;;;;0.75;0.75;;;;;12.37;100.00;100906.94;6205827;22;45157;-86
2022/12/26 07:07:24;;;;;;;;;1.00;1.00;;;;;12.34;100.00;100906.91;6207701;22;44825;-86
2022/12/26 07:09:49;;;;;;;;;2.00;2.00;;;;;12.42;100.00;100923.88;6233098;22;45301;-85
2022/12/26 07:12:15;;;;;;;;;2.00;2.00;;;;;12.33;100.00;100907.78;6206439;22;44758;-86
2022/12/26 07:14:41;;;;;;;;;1.00;1.00;;;;;12.49;100.00;100935.50;6232282;22;44789;-86
2022/12/26 07:17:08;;;;;;;;;1.00;1.00;;;;;12.46;100.00;100928.34;6231027;22;45381;-86
2022/12/26 07:19:34;;;;;;;;;1.00;1.00;;;;;12.41;100.00;100935.44;6205581;22;46572;-86
2022/12/26 07:22:00;;;;;;;;;1.00;1.00;;;;;12.37;100.00;100930.94;6236539;22;44928;-86
2022/12/26 07:24:28;;;;;;;;;2.00;2.00;;;;;12.32;100.00;100941.56;6234120;22;45158;-86
2022/12/26 07:26:54;;;;;;;;;1.00;1.00;;;;;12.20;100.00;100922.78;6232387;22;44661;-86
2022/12/26 07:29:21;;;;;;;;;1.00;1.00;;;;;12.13;100.00;100924.47;6204900;22;46925;-86
2022/12/26 07:32:45;;;;;;;;;1.00;1.00;;;;;12.13;100.00;100931.59;6210260;22;45236;-85
2022/12/26 07:35:10;;;;;;;;;1.75;1.00;;;;;12.06;100.00;100933.31;6112215;23;44849;-86
2022/12/26 07:37:36;;;;;;;;;1.00;1.00;;;;;11.97;100.00;100939.41;6087423;23;44988;-85
2022/12/26 07:40:02;;;;;;;;;1.00;1.00;;;;;11.84;100.00;100917.91;6108114;23;46502;-85
2022/12/26 07:42:27;;;;;;;;;2.67;2.67;;;;;11.98;100.00;100940.31;6109032;23;45436;-85
2022/12/26 07:44:59;;;;;;;;;1.00;1.00;;;;;11.95;100.00;100948.25;6108183;23;45467;-86
2022/12/26 07:47:25;;;;;;;;;1.75;1.75;;;;;11.91;100.00;100962.44;6108661;23;45535;-86
2022/12/26 07:49:50;;;;;;;;;3.00;1.00;;;;;11.94;100.00;100973.16;6087907;23;46572;-86
2022/12/26 07:52:17;;;;;;;;;2.67;2.67;;;;;11.95;100.00;100978.47;6088203;23;45384;-85
2022/12/26 07:54:42;;;;;;;;;1.33;1.33;;;;;11.88;100.00;100973.91;6112560;23;44767;-86
2022/12/26 07:57:08;;;;;;;;;3.00;3.00;;;;;11.95;100.00;100986.47;6085761;23;45331;-86
2022/12/26 07:59:34;;;;;;;;;3.00;2.67;;;;;11.86;100.00;100969.47;6084446;23;45232;-86
2022/12/26 08:02:03;;;;;;;;;2.00;2.00;;;;;11.79;100.00;100958.69;6111583;23;44918;-86
2022/12/26 08:04:32;;;;;;;;;2.00;2.00;;;;;11.89;100.00;100982.84;6087941;23;45331;-87
2022/12/26 08:06:58;;;;;;;;;2.67;2.67;;;;;11.96;100.00;100982.94;6087767;23;45410;-87
2022/12/26 08:09:23;;;;;;;;;3.00;3.00;;;;;11.99;100.00;100995.41;6087380;23;46841;-87
2022/12/26 08:11:49;;;;;;;;;2.00;2.00;;;;;11.99;100.00;100982.06;6152374;23;45403;-86
2022/12/26 08:14:17;;;;;;;;;2.67;2.67;;;;;12.07;100.00;100995.50;6200584;23;44710;-87
2022/12/26 08:16:44;;;;;;;;;3.00;3.00;;;;;12.11;100.00;100992.88;6203157;22;44793;-87
2022/12/26 08:19:11;;;;;;;;;2.67;2.67;;;;;12.18;100.00;101002.75;6204761;23;45210;-86
2022/12/26 08:21:39;;;;;;;;;1.50;1.50;;;;;12.16;100.00;101001.84;6204227;22;45263;-86
2022/12/26 08:24:05;;;;;;;;;1.75;1.50;;;;;12.21;100.00;101000.09;6201709;23;45261;-86
2022/12/26 08:26:31;;;;;;;;;1.50;1.50;;;;;12.31;100.00;101002.91;6202544;23;44726;-86
2022/12/26 08:29:00;;;;;;;;;3.00;3.00;;;;;12.32;100.00;101005.59;6202142;22;45489;-86
2022/12/26 08:31:26;;;;;;;;;2.00;2.00;;;;;12.39;100.00;101011.88;6203821;22;44852;-86
2022/12/26 08:33:56;;;;;;;;;0.00;0.00;;;;;12.21;100.00;100981.44;6205173;22;45379;-87
2022/12/26 08:36:24;;;;;;;;;2.50;1.50;;;;;12.41;100.00;101018.13;6203559;23;45215;-84
2022/12/26 08:38:50;;;;;;;;;2.75;2.75;;;;;12.52;100.00;101035.16;6202970;22;47049;-87
2022/12/26 08:41:17;;;;;;;;;3.00;2.00;;;;;12.45;100.00;101030.59;6198059;22;45057;-86
2022/12/26 08:43:46;;;;;;;;;2.75;2.00;;;;;12.49;100.00;101036.88;6179770;23;45743;-86
2022/12/26 08:46:12;;;;;;;;;2.00;2.00;;;;;12.47;100.00;101039.53;6178223;23;44821;-86
2022/12/26 08:48:38;;;;;;;;;2.00;2.00;;;;;12.58;100.00;101050.31;6179167;23;46645;-86
2022/12/26 08:51:10;;;;;;;;;3.25;2.75;;;;;12.60;100.00;101052.13;6176682;23;45327;-85
2022/12/26 08:53:37;;;;;;;;;3.25;2.00;;;;;12.60;100.00;101059.22;6176074;23;45328;-85
2022/12/26 08:56:06;;;;;;;;;2.00;1.00;;;;;12.63;100.00;101043.25;6202888;22;45106;-85
2022/12/26 08:58:33;;;;;;;;;1.00;0.50;;;;;12.73;100.00;101060.25;6178207;23;46915;-86
2022/12/26 09:01:16;;;;;;;;;1.75;1.75;;;;;12.51;100.00;101006.66;6177289;22;45423;-85
2022/12/26 09:03:43;;;;;;;;;3.00;3.00;;;;;12.58;100.00;101011.19;6177275;23;44789;-86
2022/12/26 09:06:10;;;;;;;;;2.00;1.25;;;;;12.67;100.00;101034.41;6199759;22;45350;-86
2022/12/26 09:08:41;;;;;;;;;2.00;2.00;;;;;12.64;100.00;101052.16;6177815;23;47070;-86
2022/12/26 09:11:11;;;;;;;;;2.50;2.50;;;;;12.74;100.00;101080.72;6179193;23;44787;-85
2022/12/26 09:13:38;;;;;;;;;4.00;2.00;;;;;12.52;100.00;101035.16;6203919;22;45345;-85
2022/12/26 09:16:12;;;;;;;;;2.00;1.00;;;;;12.66;100.00;101061.94;6178202;23;44983;-86
2022/12/26 09:18:38;;;;;;;;;1.00;1.00;;;;;12.69;100.00;101071.78;6204888;22;45719;-86
2022/12/26 09:21:06;;;;;;;;;2.50;2.25;;;;;12.58;100.00;101047.63;6181668;22;44729;-86
2022/12/26 09:23:33;;;;;;;;;3.00;2.00;;;;;12.85;100.00;101094.19;6180808;22;45301;-86
2022/12/26 09:26:09;;;;;;;;;2.00;2.00;;;;;12.83;100.00;101078.16;6207629;22;44739;-86
2022/12/26 09:28:36;;;;;;;;;2.25;2.25;;;;;12.70;100.00;101047.75;6179835;22;45614;-87
2022/12/26 09:31:06;;;;;;;;;0.75;0.75;;;;;12.84;100.00;101074.59;6179919;22;44775;-86
2022/12/26 09:33:37;;;;;;;;;1.00;1.00;;;;;12.91;100.00;101073.78;6207289;22;44961;-86
2022/12/26 09:36:19;;;;;;;;;1.25;1.25;;;;;12.95;100.00;101090.72;6268491;22;45257;-86
2022/12/26 09:38:48;;;;;;;;;3.00;3.00;;;;;12.90;100.00;101077.31;6208477;22;47018;-86
2022/12/26 09:41:33;;;;;;;;;2.00;2.00;;;;;13.01;100.00;101090.78;6234278;22;45266;-86
2022/12/26 09:44:05;;;;;;;;;3.50;3.50;;;;;12.98;100.00;101096.97;6206986;22;45348;-86
2022/12/26 09:46:56;;;;;;;;;3.75;3.75;;;;;12.91;100.00;101089.81;6207101;22;44813;-87
2022/12/26 09:49:35;;;;;;;;;3.00;2.00;;;;;13.00;100.00;101103.22;6206538;22;45200;-86
2022/12/26 09:52:15;;;;;;;;;3.00;3.00;;;;;13.02;100.00;101101.47;6206136;22;44854;-87
2022/12/26 09:54:52;;;;;;;;;3.00;3.00;;;;;12.98;100.00;101083.63;6206264;22;45212;-86
2022/12/26 09:57:27;;;;;;;;;1.50;1.00;;;;;13.20;100.00;101103.41;6232174;22;44693;-87
2022/12/26 10:00:00;;;;;;;;;3.00;2.00;;;;;13.26;100.00;101105.25;6205175;22;46761;-87
2022/12/26 10:02:27;;;;;;;;;2.75;2.75;;;;;13.16;100.00;101088.25;6206777;22;45301;-87
2022/12/26 10:04:54;;;;;;;;;4.00;4.00;;;;;13.22;100.00;101074.06;6206779;22;45260;-87
2022/12/26 10:07:36;;;;;;;;;1.75;1.75;;;;;13.42;100.00;101116.13;6206226;22;44820;-86
2022/12/26 10:10:11;;;;;;;;;3.00;2.00;;;;;13.48;100.00;101129.53;6204228;22;46841;-86
2022/12/26 10:12:45;;;;;;;;;3.50;1.75;;;;;13.53;100.00;101127.78;6203858;22;45298;-88
2022/12/26 10:15:54;;;;;;;;;1.75;1.75;;;;;13.58;100.00;101120.69;6233154;22;45236;-86
2022/12/26 10:18:51;;;;;;;;;3.00;1.25;;;;;13.64;100.00;101130.56;6204638;22;45162;-88
2022/12/26 10:21:46;;;;;;;;;2.00;2.00;;;;;13.70;100.00;101136.81;6206932;22;47366;-86
2022/12/26 10:24:20;;;;;;;;;1.00;1.00;;;;;13.47;100.00;101088.56;6233603;22;44746;-86
2022/12/26 10:26:54;;;;;;;;;2.00;2.00;;;;;13.58;100.00;101099.31;6206972;22;45297;-85
2022/12/26 10:29:34;;;;;;;;;3.25;2.00;;;;;13.77;100.00;101108.34;6244206;22;44690;-87
2022/12/26 10:32:05;;;;;;;;;2.50;2.00;;;;;13.86;100.00;101129.81;6263921;22;45257;-87
2022/12/26 10:34:35;;;;;;;;;2.50;1.25;;;;;13.72;100.00;101094.09;6240445;22;44735;-87
2022/12/26 10:37:16;;;;;;;;;1.00;1.00;;;;;13.85;100.00;101113.75;6241068;22;45354;-87
2022/12/26 10:40:18;;;;;;;;;1.00;1.00;;;;;13.77;100.00;101109.25;6265443;22;44792;-85
2022/12/26 10:42:49;;;;;;;;;1.75;1.00;;;;;13.78;100.00;101103.03;6239301;22;45415;-88
2022/12/26 10:45:33;;;;;;;;;2.00;2.00;;;;;13.89;100.00;101115.56;6262131;22;45562;-87
2022/12/26 10:47:59;;;;;;;;;2.00;2.00;;;;;13.85;100.00;101114.66;6237237;22;44855;-86
2022/12/26 10:50:31;;;;;;;;;2.00;1.75;;;;;13.88;100.00;101124.50;6235918;22;45326;-87
2022/12/26 10:52:58;;;;;;;;;0.25;0.25;;;;;13.84;100.00;101111.97;6237064;22;45433;-86
2022/12/26 10:55:31;;;;;;;;;2.50;1.25;;;;;13.89;100.00;101113.78;6263345;22;46107;-86
2022/12/26 10:58:19;;;;;;;;;1.00;1.00;;;;;13.97;100.00;101128.09;6240580;22;44702;-85
2022/12/26 11:00:47;;;;;;;;;1.75;1.75;;;;;13.96;100.00;101117.41;6238972;22;45861;-87
2022/12/26 11:03:16;;;;;;;;;2.00;1.50;;;;;14.09;100.00;101134.41;6236857;22;47182;-86
2022/12/26 11:05:45;;;;;;;;;5.00;2.00;;;;;14.04;100.00;101125.44;6237677;22;44756;-87
2022/12/26 11:08:37;;;;;;;;;2.50;1.50;;;;;14.12;100.00;101138.00;6237458;22;45314;-86
2022/12/26 11:11:07;;;;;;;;;1.00;1.00;;;;;14.15;100.00;101132.66;6263768;22;45204;-86
2022/12/26 11:13:45;;;;;;;;;2.50;2.50;;;;;14.16;100.00;101131.78;6265184;22;47293;-86
2022/12/26 11:16:10;;;;;;;;;0.50;0.50;;;;;14.15;100.00;101110.38;6239259;22;45568;-86
2022/12/26 11:18:51;;;;;;;;;1.00;1.00;;;;;14.28;100.00;101120.25;6237852;22;44756;-86
2022/12/26 11:21:18;;;;;;;;;1.00;1.00;;;;;14.33;100.00;101113.13;6269785;22;44637;-85
2022/12/26 11:23:45;;;;;;;;;1.00;1.00;;;;;14.38;100.00;101121.16;6239062;22;46603;-86
2022/12/26 11:26:28;;;;;;;;;0.60;0.60;;;;;14.41;100.00;101116.72;6241690;22;44708;-87
2022/12/26 11:29:20;;;;;;;;;3.00;3.00;;;;;14.44;100.00;101115.88;6239422;22;45319;-86
2022/12/26 11:31:57;;;;;;;;;0.50;0.00;;;;;14.28;100.00;101087.25;6241478;22;44729;-86
2022/12/26 11:34:52;;;;;;;;;1.00;1.00;;;;;14.45;100.00;101127.47;6267539;22;45566;-87
2022/12/26 11:37:40;;;;;;;;;0.00;0.00;;;;;14.49;100.00;101139.97;6219919;22;45566;-86
2022/12/26 11:40:21;;;;;;;;;2.00;1.00;;;;;14.49;100.00;101135.50;6239104;22;44791;-87
2022/12/26 11:49:33;;;;;;;;;1.00;1.00;;;;;14.18;100.00;101162.13;6265674;22;44803;-86
2022/12/26 11:52:20;;;;;;;;;0.00;0.00;;;;;13.97;100.00;101194.06;6238704;22;45434;-86
2022/12/26 11:54:49;;;;;;;;;0.50;0.50;;;;;13.54;100.00;101183.03;6118897;23;44826;-86
2022/12/26 11:57:21;;;;;;;;;0.50;0.50;;;;;12.88;100.00;101415.44;6139125;23;47072;-85
2022/12/26 11:59:48;;;;;;;;;2.00;0.75;;;;;12.38;100.00;101228.78;6139790;23;44715;-84
2022/12/26 12:02:22;;;;;;;;;1.75;1.00;;;;;12.38;100.00;101218.09;6140239;23;44703;-86
2022/12/26 12:04:50;;;;;;;;;0.25;0.00;;;;;11.76;100.00;101246.44;6141256;23;45351;-86
2022/12/26 12:14:58;;;;;;;;;1.00;1.00;;;;;11.14;100.00;101243.53;6142105;23;45246;-85
2022/12/26 12:17:27;;;;;;;;;1.75;1.75;;;;;11.13;100.00;101231.97;6080541;23;45377;-86
2022/12/26 12:20:23;;;;;;;;;1.25;1.25;;;;;11.18;100.00;101240.94;6055787;23;47526;-86
2022/12/26 12:23:24;;;;;;;;;3.00;2.00;;;;;11.13;100.00;101233.72;6057698;23;44678;-86
2022/12/26 12:33:21;;;;;;;;;0.50;0.50;;;;;10.74;100.00;101280.81;6122371;23;44914;-86
2022/12/26 12:35:57;;;;;;;;;1.50;1.50;;;;;10.48;100.00;101284.66;6116947;23;45547;-85
2022/12/26 12:38:35;;;;;;;;;0.25;0.25;;;;;10.31;100.00;101274.53;6114953;23;44809;-85
2022/12/26 12:41:21;;;;;;;;;3.00;2.00;;;;;10.20;100.00;101295.53;6138322;23;45486;-86
2022/12/26 12:43:59;;;;;;;;;1.75;1.75;;;;;10.14;100.00;101282.09;6113977;23;47239;-86
2022/12/26 12:46:58;;;;;;;;;0.50;0.50;;;;;10.19;100.00;101291.06;6114934;23;45312;-87
2022/12/26 12:50:01;;;;;;;;;0.50;0.50;;;;;10.34;100.00;101284.34;6114646;23;45320;-86
2022/12/26 12:52:49;;;;;;;;;1.50;0.50;;;;;10.53;100.00;101280.38;6149802;22;45468;-86
2022/12/26 12:55:58;;;;;;;;;1.00;1.00;;;;;10.69;100.00;101281.63;6235275;22;46974;-86
2022/12/26 12:58:39;;;;;;;;;1.00;1.00;;;;;10.78;100.00;101288.00;6236723;22;45416;-87
2022/12/26 13:01:28;;;;;;;;;2.25;2.00;;;;;10.86;100.00;101284.63;6263327;22;45287;-85
2022/12/26 13:04:07;;;;;;;;;1.00;1.00;;;;;11.00;100.00;101283.16;6233518;22;45248;-86
2022/12/26 13:06:38;;;;;;;;;0.50;0.50;;;;;11.11;100.00;101286.03;6233617;22;45458;-85
2022/12/26 13:09:14;;;;;;;;;1.00;1.00;;;;;11.17;100.00;101287.09;6235816;22;45366;-86
2022/12/26 13:12:02;;;;;;;;;1.00;1.00;;;;;11.18;100.00;101294.19;6262959;22;44766;-84
2022/12/26 13:14:35;;;;;;;;;0.25;0.25;;;;;11.19;100.00;101295.09;6235758;22;45439;-85
2022/12/26 13:17:28;;;;;;;;;2.00;1.00;;;;;11.22;100.00;101303.13;6238565;22;47656;-85
2022/12/26 13:20:17;;;;;;;;;0.00;0.00;;;;;11.21;100.00;101312.00;6247592;22;45265;-86
2022/12/26 13:26:19;;;;;;;;;1.00;1.00;;;;;11.25;100.00;101313.88;6263454;22;45302;-86
2022/12/26 13:29:20;;;;;;;;;2.00;2.00;;;;;11.21;100.00;101294.25;6236000;22;46710;-85
2022/12/26 13:31:47;;;;;;;;;2.00;1.67;;;;;11.35;100.00;101309.59;6234320;22;45311;-86
2022/12/26 13:34:19;;;;;;;;;0.33;0.33;;;;;11.24;100.00;101288.09;6239048;22;44685;-85
2022/12/26 13:36:53;;;;;;;;;2.00;2.00;;;;;11.26;100.00;101280.16;6251362;22;44885;-86
2022/12/26 13:39:31;;;;;;;;;0.33;0.33;;;;;11.54;100.00;101316.22;6259999;22;45291;-86
2022/12/26 13:44:51;;;;;;;;;1.00;1.00;;;;;11.52;100.00;101293.97;6262059;22;45399;-85
2022/12/26 13:47:36;;;;;;;;;1.00;1.00;;;;;11.77;100.00;101328.16;6234311;22;45328;-86
2022/12/26 13:50:41;;;;;;;;;0.50;0.50;;;;;11.78;100.00;101322.00;6234392;22;46577;-86
2022/12/26 13:53:26;;;;;;;;;0.25;0.25;;;;;11.71;100.00;101332.50;6233329;22;45289;-86
2022/12/26 13:56:34;;;;;;;;;1.75;1.75;;;;;11.67;100.00;101336.88;6257790;22;45327;-86
2022/12/26 13:59:40;;;;;;;;;2.33;1.00;;;;;11.67;100.00;101342.19;6258050;22;45327;-85
2022/12/26 14:02:20;;;;;;;;;1.50;0.25;;;;;11.66;100.00;101345.75;6233743;22;45810;-86
2022/12/26 14:05:10;;;;;;;;;2.00;1.00;;;;;11.70;100.00;101347.59;6235316;22;44724;-86
2022/12/26 14:08:03;;;;;;;;;0.75;0.00;;;;;11.56;100.00;101338.44;6259634;22;45298;-87
2022/12/26 14:11:06;;;;;;;;;0.00;0.00;;;;;11.52;100.00;101356.13;6232855;22;45271;-88
2022/12/26 14:13:40;;;;;;;;;2.75;2.50;;;;;11.44;100.00;101365.72;6263068;22;46090;-85